sensor_id;sensor_type;location;lat;lon;timestamp;P1;durP1;ratioP1;P2;durP2;ratioP2
55710;SDS011;41612;51.994;5.880;2023-09-08T00:01:51;6.30;;;5.40;;
55710;SDS011;41612;51.994;5.880;2023-09-08T00:04:17;5.88;;;4.05;;
55710;SDS011;41612;51.994;5.880;2023-09-08T00:06:44;5.20;;;4.05;;
55710;SDS011;41612;51.994;5.880;2023-09-08T00:09:11;7.68;;;4.55;;
55710;SDS011;41612;51.994;5.880;2023-09-08T00:11:36;5.18;;;4.25;;
55710;SDS011;41612;51.994;5.880;2023-09-08T00:14:02;6.93;;;5.28;;
55710;SDS011;41612;51.994;5.880;2023-09-08T00:16:28;4.90;;;3.97;;
55710;SDS011;41612;51.994;5.880;2023-09-08T00:18:55;5.65;;;4.43;;
55710;SDS011;41612;51.994;5.880;2023-09-08T00:21:22;7.60;;;5.28;;
55710;SDS011;41612;51.994;5.880;2023-09-08T00:23:48;5.43;;;4.32;;
55710;SDS011;41612;51.994;5.880;2023-09-08T00:26:13;5.68;;;4.50;;
55710;SDS011;41612;51.994;5.880;2023-09-08T00:28:42;5.40;;;4.38;;
55710;SDS011;41612;51.994;5.880;2023-09-08T00:31:07;6.55;;;5.10;;
55710;SDS011;41612;51.994;5.880;2023-09-08T00:33:33;5.95;;;4.30;;
55710;SDS011;41612;51.994;5.880;2023-09-08T00:35:59;5.50;;;4.28;;
55710;SDS011;41612;51.994;5.880;2023-09-08T00:38:24;6.57;;;4.35;;
55710;SDS011;41612;51.994;5.880;2023-09-08T00:40:50;4.80;;;4.30;;
55710;SDS011;41612;51.994;5.880;2023-09-08T00:43:16;5.55;;;4.47;;
55710;SDS011;41612;51.994;5.880;2023-09-08T00:45:42;4.97;;;4.07;;
55710;SDS011;41612;51.994;5.880;2023-09-08T00:48:09;6.05;;;4.25;;
55710;SDS011;41612;51.994;5.880;2023-09-08T00:50:36;5.97;;;4.80;;
55710;SDS011;41612;51.994;5.880;2023-09-08T00:53:02;5.22;;;4.35;;
55710;SDS011;41612;51.994;5.880;2023-09-08T00:55:29;4.72;;;4.22;;
55710;SDS011;41612;51.994;5.880;2023-09-08T00:57:56;5.45;;;4.80;;
55710;SDS011;41612;51.994;5.880;2023-09-08T01:00:24;5.43;;;4.75;;
55710;SDS011;41612;51.994;5.880;2023-09-08T01:02:50;5.82;;;4.53;;
55710;SDS011;41612;51.994;5.880;2023-09-08T01:05:15;5.57;;;4.97;;
55710;SDS011;41612;51.994;5.880;2023-09-08T01:07:41;5.45;;;4.55;;
55710;SDS011;41612;51.994;5.880;2023-09-08T01:10:09;5.55;;;4.65;;
55710;SDS011;41612;51.994;5.880;2023-09-08T01:12:35;5.82;;;4.85;;
55710;SDS011;41612;51.994;5.880;2023-09-08T01:15:02;5.70;;;4.90;;
55710;SDS011;41612;51.994;5.880;2023-09-08T01:17:28;6.68;;;5.05;;
55710;SDS011;41612;51.994;5.880;2023-09-08T01:19:55;6.80;;;4.97;;
55710;SDS011;41612;51.994;5.880;2023-09-08T01:27:43;5.55;;;4.50;;
55710;SDS011;41612;51.994;5.880;2023-09-08T01:30:12;7.82;;;5.88;;
55710;SDS011;41612;51.994;5.880;2023-09-08T01:32:39;5.22;;;4.50;;
55710;SDS011;41612;51.994;5.880;2023-09-08T01:35:05;6.38;;;4.72;;
55710;SDS011;41612;51.994;5.880;2023-09-08T01:37:32;5.63;;;4.40;;
55710;SDS011;41612;51.994;5.880;2023-09-08T01:39:57;8.25;;;4.95;;
55710;SDS011;41612;51.994;5.880;2023-09-08T01:42:23;5.25;;;4.50;;
55710;SDS011;41612;51.994;5.880;2023-09-08T01:44:49;5.05;;;4.35;;
55710;SDS011;41612;51.994;5.880;2023-09-08T01:47:15;7.05;;;5.07;;
55710;SDS011;41612;51.994;5.880;2023-09-08T01:49:41;5.97;;;5.00;;
55710;SDS011;41612;51.994;5.880;2023-09-08T01:52:07;5.93;;;4.50;;
55710;SDS011;41612;51.994;5.880;2023-09-08T01:54:34;6.53;;;4.78;;
55710;SDS011;41612;51.994;5.880;2023-09-08T01:57:00;7.30;;;4.88;;
55710;SDS011;41612;51.994;5.880;2023-09-08T01:59:25;6.13;;;4.25;;
55710;SDS011;41612;51.994;5.880;2023-09-08T02:01:51;9.52;;;4.32;;
55710;SDS011;41612;51.994;5.880;2023-09-08T02:04:17;8.02;;;4.75;;
55710;SDS011;41612;51.994;5.880;2023-09-08T02:06:42;5.65;;;4.55;;
55710;SDS011;41612;51.994;5.880;2023-09-08T02:09:08;5.38;;;4.55;;
55710;SDS011;41612;51.994;5.880;2023-09-08T02:11:35;5.65;;;4.32;;
55710;SDS011;41612;51.994;5.880;2023-09-08T02:14:01;5.10;;;4.55;;
55710;SDS011;41612;51.994;5.880;2023-09-08T02:16:26;6.55;;;4.90;;
55710;SDS011;41612;51.994;5.880;2023-09-08T02:18:53;5.50;;;4.60;;
55710;SDS011;41612;51.994;5.880;2023-09-08T02:21:19;5.75;;;4.78;;
55710;SDS011;41612;51.994;5.880;2023-09-08T02:23:46;5.75;;;4.30;;
55710;SDS011;41612;51.994;5.880;2023-09-08T02:26:11;5.70;;;4.65;;
55710;SDS011;41612;51.994;5.880;2023-09-08T02:28:37;5.00;;;4.13;;
55710;SDS011;41612;51.994;5.880;2023-09-08T02:31:03;5.72;;;4.35;;
55710;SDS011;41612;51.994;5.880;2023-09-08T02:33:29;5.43;;;4.68;;
55710;SDS011;41612;51.994;5.880;2023-09-08T02:35:57;6.70;;;4.50;;
55710;SDS011;41612;51.994;5.880;2023-09-08T02:38:30;6.25;;;4.30;;
55710;SDS011;41612;51.994;5.880;2023-09-08T02:40:56;6.90;;;4.75;;
55710;SDS011;41612;51.994;5.880;2023-09-08T02:43:23;6.50;;;4.80;;
55710;SDS011;41612;51.994;5.880;2023-09-08T02:45:49;6.18;;;5.53;;
55710;SDS011;41612;51.994;5.880;2023-09-08T02:48:15;5.82;;;5.18;;
55710;SDS011;41612;51.994;5.880;2023-09-08T02:50:42;5.25;;;4.75;;
55710;SDS011;41612;51.994;5.880;2023-09-08T02:53:08;5.95;;;4.95;;
55710;SDS011;41612;51.994;5.880;2023-09-08T02:55:34;7.10;;;5.95;;
55710;SDS011;41612;51.994;5.880;2023-09-08T02:58:00;7.47;;;5.22;;
55710;SDS011;41612;51.994;5.880;2023-09-08T03:00:26;6.20;;;4.88;;
55710;SDS011;41612;51.994;5.880;2023-09-08T03:02:52;6.25;;;5.30;;
55710;SDS011;41612;51.994;5.880;2023-09-08T03:05:18;5.97;;;5.15;;
55710;SDS011;41612;51.994;5.880;2023-09-08T03:07:47;7.88;;;6.70;;
55710;SDS011;41612;51.994;5.880;2023-09-08T03:10:13;7.38;;;5.85;;
55710;SDS011;41612;51.994;5.880;2023-09-08T03:12:39;9.50;;;6.40;;
55710;SDS011;41612;51.994;5.880;2023-09-08T03:15:04;5.68;;;4.70;;
55710;SDS011;41612;51.994;5.880;2023-09-08T03:17:31;6.78;;;5.30;;
55710;SDS011;41612;51.994;5.880;2023-09-08T03:19:56;6.35;;;5.07;;
55710;SDS011;41612;51.994;5.880;2023-09-08T03:22:22;5.80;;;4.78;;
55710;SDS011;41612;51.994;5.880;2023-09-08T03:24:49;6.97;;;5.22;;
55710;SDS011;41612;51.994;5.880;2023-09-08T03:27:15;6.70;;;5.00;;
55710;SDS011;41612;51.994;5.880;2023-09-08T03:29:41;7.18;;;6.30;;
55710;SDS011;41612;51.994;5.880;2023-09-08T03:32:06;8.63;;;6.47;;
55710;SDS011;41612;51.994;5.880;2023-09-08T03:34:32;6.60;;;4.93;;
55710;SDS011;41612;51.994;5.880;2023-09-08T03:37:00;8.25;;;6.90;;
55710;SDS011;41612;51.994;5.880;2023-09-08T03:39:25;7.47;;;5.60;;
55710;SDS011;41612;51.994;5.880;2023-09-08T03:41:51;9.60;;;7.55;;
55710;SDS011;41612;51.994;5.880;2023-09-08T03:44:17;8.25;;;5.90;;
55710;SDS011;41612;51.994;5.880;2023-09-08T03:46:42;6.65;;;5.80;;
55710;SDS011;41612;51.994;5.880;2023-09-08T03:49:08;8.93;;;7.38;;
55710;SDS011;41612;51.994;5.880;2023-09-08T03:51:34;12.07;;;8.70;;
55710;SDS011;41612;51.994;5.880;2023-09-08T03:54:00;9.77;;;8.15;;
55710;SDS011;41612;51.994;5.880;2023-09-08T03:56:28;9.95;;;7.65;;
55710;SDS011;41612;51.994;5.880;2023-09-08T03:58:53;10.23;;;7.90;;
55710;SDS011;41612;51.994;5.880;2023-09-08T04:01:19;11.25;;;8.90;;
55710;SDS011;41612;51.994;5.880;2023-09-08T04:03:45;10.45;;;8.35;;
55710;SDS011;41612;51.994;5.880;2023-09-08T04:06:10;8.35;;;6.65;;
55710;SDS011;41612;51.994;5.880;2023-09-08T04:08:36;9.90;;;7.35;;
55710;SDS011;41612;51.994;5.880;2023-09-08T04:11:02;10.77;;;7.78;;
55710;SDS011;41612;51.994;5.880;2023-09-08T04:13:27;10.60;;;8.43;;
55710;SDS011;41612;51.994;5.880;2023-09-08T04:15:53;12.57;;;8.50;;
55710;SDS011;41612;51.994;5.880;2023-09-08T04:18:19;14.23;;;9.02;;
55710;SDS011;41612;51.994;5.880;2023-09-08T04:20:45;12.60;;;9.45;;
55710;SDS011;41612;51.994;5.880;2023-09-08T04:23:11;10.27;;;8.68;;
55710;SDS011;41612;51.994;5.880;2023-09-08T04:25:37;10.82;;;9.27;;
55710;SDS011;41612;51.994;5.880;2023-09-08T04:28:03;10.13;;;8.80;;
55710;SDS011;41612;51.994;5.880;2023-09-08T04:30:30;12.75;;;9.82;;
55710;SDS011;41612;51.994;5.880;2023-09-08T04:32:56;10.00;;;8.05;;
55710;SDS011;41612;51.994;5.880;2023-09-08T04:35:21;14.43;;;9.10;;
55710;SDS011;41612;51.994;5.880;2023-09-08T04:37:47;9.63;;;7.82;;
55710;SDS011;41612;51.994;5.880;2023-09-08T04:40:13;10.73;;;9.27;;
55710;SDS011;41612;51.994;5.880;2023-09-08T04:42:39;12.02;;;9.95;;
55710;SDS011;41612;51.994;5.880;2023-09-08T04:45:06;12.45;;;9.05;;
55710;SDS011;41612;51.994;5.880;2023-09-08T04:47:33;11.43;;;9.68;;
55710;SDS011;41612;51.994;5.880;2023-09-08T04:49:59;11.98;;;9.38;;
55710;SDS011;41612;51.994;5.880;2023-09-08T04:52:25;10.85;;;9.10;;
55710;SDS011;41612;51.994;5.880;2023-09-08T04:54:51;10.63;;;8.50;;
55710;SDS011;41612;51.994;5.880;2023-09-08T04:57:16;11.75;;;9.40;;
55710;SDS011;41612;51.994;5.880;2023-09-08T04:59:44;11.82;;;9.63;;
55710;SDS011;41612;51.994;5.880;2023-09-08T05:02:10;12.23;;;8.90;;
55710;SDS011;41612;51.994;5.880;2023-09-08T05:04:35;13.13;;;9.48;;
55710;SDS011;41612;51.994;5.880;2023-09-08T05:07:02;12.25;;;9.07;;
55710;SDS011;41612;51.994;5.880;2023-09-08T05:09:28;11.90;;;10.18;;
55710;SDS011;41612;51.994;5.880;2023-09-08T05:11:54;13.38;;;10.75;;
55710;SDS011;41612;51.994;5.880;2023-09-08T05:14:20;14.63;;;10.82;;
55710;SDS011;41612;51.994;5.880;2023-09-08T05:16:46;9.88;;;8.48;;
55710;SDS011;41612;51.994;5.880;2023-09-08T05:19:17;11.50;;;8.70;;
55710;SDS011;41612;51.994;5.880;2023-09-08T05:21:43;10.52;;;8.40;;
55710;SDS011;41612;51.994;5.880;2023-09-08T05:24:09;11.48;;;9.73;;
55710;SDS011;41612;51.994;5.880;2023-09-08T05:26:36;11.52;;;9.45;;
55710;SDS011;41612;51.994;5.880;2023-09-08T05:29:03;12.75;;;9.32;;
55710;SDS011;41612;51.994;5.880;2023-09-08T05:31:29;10.38;;;9.20;;
55710;SDS011;41612;51.994;5.880;2023-09-08T05:33:55;13.00;;;9.90;;
55710;SDS011;41612;51.994;5.880;2023-09-08T05:36:21;11.00;;;8.57;;
55710;SDS011;41612;51.994;5.880;2023-09-08T05:38:48;12.07;;;8.20;;
55710;SDS011;41612;51.994;5.880;2023-09-08T05:41:13;9.68;;;8.35;;
55710;SDS011;41612;51.994;5.880;2023-09-08T05:43:40;12.25;;;9.43;;
55710;SDS011;41612;51.994;5.880;2023-09-08T05:46:06;14.02;;;9.15;;
55710;SDS011;41612;51.994;5.880;2023-09-08T05:48:31;10.20;;;8.52;;
55710;SDS011;41612;51.994;5.880;2023-09-08T05:50:57;10.88;;;8.68;;
55710;SDS011;41612;51.994;5.880;2023-09-08T05:53:24;11.02;;;9.82;;
55710;SDS011;41612;51.994;5.880;2023-09-08T05:55:52;10.27;;;8.60;;
55710;SDS011;41612;51.994;5.880;2023-09-08T05:58:17;11.35;;;8.55;;
55710;SDS011;41612;51.994;5.880;2023-09-08T06:00:43;9.90;;;8.13;;
55710;SDS011;41612;51.994;5.880;2023-09-08T06:03:09;11.48;;;9.45;;
55710;SDS011;41612;51.994;5.880;2023-09-08T06:05:35;10.77;;;8.57;;
55710;SDS011;41612;51.994;5.880;2023-09-08T06:08:01;11.98;;;9.02;;
55710;SDS011;41612;51.994;5.880;2023-09-08T06:10:28;11.95;;;9.68;;
55710;SDS011;41612;51.994;5.880;2023-09-08T06:12:56;14.27;;;11.02;;
55710;SDS011;41612;51.994;5.880;2023-09-08T06:15:22;12.38;;;8.90;;
55710;SDS011;41612;51.994;5.880;2023-09-08T06:17:47;13.07;;;9.52;;
55710;SDS011;41612;51.994;5.880;2023-09-08T06:20:13;13.23;;;9.32;;
55710;SDS011;41612;51.994;5.880;2023-09-08T06:22:39;11.05;;;9.45;;
55710;SDS011;41612;51.994;5.880;2023-09-08T06:25:05;12.88;;;10.95;;
55710;SDS011;41612;51.994;5.880;2023-09-08T06:27:31;11.70;;;10.45;;
55710;SDS011;41612;51.994;5.880;2023-09-08T06:29:57;13.07;;;11.30;;
55710;SDS011;41612;51.994;5.880;2023-09-08T06:32:22;12.43;;;9.85;;
55710;SDS011;41612;51.994;5.880;2023-09-08T06:34:48;11.40;;;8.60;;
55710;SDS011;41612;51.994;5.880;2023-09-08T06:37:14;15.23;;;12.57;;
55710;SDS011;41612;51.994;5.880;2023-09-08T06:39:41;11.75;;;9.57;;
55710;SDS011;41612;51.994;5.880;2023-09-08T06:42:07;15.75;;;11.55;;
55710;SDS011;41612;51.994;5.880;2023-09-08T06:44:34;15.00;;;12.00;;
55710;SDS011;41612;51.994;5.880;2023-09-08T06:47:00;15.25;;;11.30;;
55710;SDS011;41612;51.994;5.880;2023-09-08T06:49:26;13.77;;;10.93;;
55710;SDS011;41612;51.994;5.880;2023-09-08T06:51:52;16.38;;;10.73;;
55710;SDS011;41612;51.994;5.880;2023-09-08T06:54:18;15.60;;;11.82;;
55710;SDS011;41612;51.994;5.880;2023-09-08T06:56:45;13.02;;;10.35;;
55710;SDS011;41612;51.994;5.880;2023-09-08T06:59:10;14.30;;;12.70;;
55710;SDS011;41612;51.994;5.880;2023-09-08T07:01:36;15.80;;;11.95;;
55710;SDS011;41612;51.994;5.880;2023-09-08T07:04:02;14.50;;;11.95;;
55710;SDS011;41612;51.994;5.880;2023-09-08T07:06:29;12.55;;;9.48;;
55710;SDS011;41612;51.994;5.880;2023-09-08T07:08:56;12.38;;;9.05;;
55710;SDS011;41612;51.994;5.880;2023-09-08T07:11:21;14.98;;;9.55;;
55710;SDS011;41612;51.994;5.880;2023-09-08T07:13:47;18.50;;;12.68;;
55710;SDS011;41612;51.994;5.880;2023-09-08T07:16:13;10.32;;;9.23;;
55710;SDS011;41612;51.994;5.880;2023-09-08T07:18:39;12.07;;;10.15;;
55710;SDS011;41612;51.994;5.880;2023-09-08T07:21:07;16.10;;;12.88;;
55710;SDS011;41612;51.994;5.880;2023-09-08T07:23:33;19.60;;;11.80;;
55710;SDS011;41612;51.994;5.880;2023-09-08T07:26:02;16.45;;;10.65;;
55710;SDS011;41612;51.994;5.880;2023-09-08T07:28:29;18.60;;;12.63;;
55710;SDS011;41612;51.994;5.880;2023-09-08T07:31:04;16.30;;;13.38;;
55710;SDS011;41612;51.994;5.880;2023-09-08T07:33:35;19.40;;;12.27;;
55710;SDS011;41612;51.994;5.880;2023-09-08T07:36:05;15.20;;;11.40;;
55710;SDS011;41612;51.994;5.880;2023-09-08T07:38:32;17.58;;;11.85;;
55710;SDS011;41612;51.994;5.880;2023-09-08T07:41:01;17.02;;;12.85;;
55710;SDS011;41612;51.994;5.880;2023-09-08T07:43:28;19.02;;;12.52;;
55710;SDS011;41612;51.994;5.880;2023-09-08T07:45:54;15.27;;;11.95;;
55710;SDS011;41612;51.994;5.880;2023-09-08T07:48:20;17.88;;;10.55;;
55710;SDS011;41612;51.994;5.880;2023-09-08T07:50:45;12.68;;;8.55;;
55710;SDS011;41612;51.994;5.880;2023-09-08T07:53:11;14.52;;;10.63;;
55710;SDS011;41612;51.994;5.880;2023-09-08T07:55:37;19.23;;;12.50;;
55710;SDS011;41612;51.994;5.880;2023-09-08T07:58:03;15.95;;;12.73;;
55710;SDS011;41612;51.994;5.880;2023-09-08T08:00:29;15.95;;;12.45;;
55710;SDS011;41612;51.994;5.880;2023-09-08T08:02:55;15.80;;;13.65;;
55710;SDS011;41612;51.994;5.880;2023-09-08T08:05:22;19.60;;;13.55;;
55710;SDS011;41612;51.994;5.880;2023-09-08T08:07:48;15.57;;;12.23;;
55710;SDS011;41612;51.994;5.880;2023-09-08T08:10:14;15.20;;;12.30;;
55710;SDS011;41612;51.994;5.880;2023-09-08T08:12:40;17.02;;;11.95;;
55710;SDS011;41612;51.994;5.880;2023-09-08T08:15:07;16.95;;;11.63;;
55710;SDS011;41612;51.994;5.880;2023-09-08T08:17:35;13.98;;;11.18;;
55710;SDS011;41612;51.994;5.880;2023-09-08T08:20:02;14.88;;;11.52;;
55710;SDS011;41612;51.994;5.880;2023-09-08T08:22:34;16.55;;;11.35;;
55710;SDS011;41612;51.994;5.880;2023-09-08T08:25:00;15.43;;;9.10;;
55710;SDS011;41612;51.994;5.880;2023-09-08T08:27:25;13.90;;;9.70;;
55710;SDS011;41612;51.994;5.880;2023-09-08T08:29:51;16.05;;;12.05;;
55710;SDS011;41612;51.994;5.880;2023-09-08T08:32:17;14.38;;;10.30;;
55710;SDS011;41612;51.994;5.880;2023-09-08T08:34:43;11.40;;;9.55;;
55710;SDS011;41612;51.994;5.880;2023-09-08T08:37:10;11.30;;;8.02;;
55710;SDS011;41612;51.994;5.880;2023-09-08T08:39:36;16.30;;;11.82;;
55710;SDS011;41612;51.994;5.880;2023-09-08T08:42:08;16.58;;;10.50;;
55710;SDS011;41612;51.994;5.880;2023-09-08T08:44:35;16.45;;;12.32;;
55710;SDS011;41612;51.994;5.880;2023-09-08T08:47:03;17.20;;;11.05;;
55710;SDS011;41612;51.994;5.880;2023-09-08T08:49:34;15.05;;;11.32;;
55710;SDS011;41612;51.994;5.880;2023-09-08T08:52:02;14.57;;;10.60;;
55710;SDS011;41612;51.994;5.880;2023-09-08T08:54:37;11.80;;;9.73;;
55710;SDS011;41612;51.994;5.880;2023-09-08T08:57:04;12.88;;;10.10;;
55710;SDS011;41612;51.994;5.880;2023-09-08T08:59:31;13.27;;;9.90;;
55710;SDS011;41612;51.994;5.880;2023-09-08T09:01:58;15.50;;;12.90;;
55710;SDS011;41612;51.994;5.880;2023-09-08T09:04:24;15.15;;;12.10;;
55710;SDS011;41612;51.994;5.880;2023-09-08T09:06:52;18.38;;;10.88;;
55710;SDS011;41612;51.994;5.880;2023-09-08T09:09:18;14.40;;;11.55;;
55710;SDS011;41612;51.994;5.880;2023-09-08T09:11:44;12.88;;;11.20;;
55710;SDS011;41612;51.994;5.880;2023-09-08T09:14:10;12.70;;;10.68;;
55710;SDS011;41612;51.994;5.880;2023-09-08T09:16:40;14.20;;;10.68;;
55710;SDS011;41612;51.994;5.880;2023-09-08T09:19:06;13.43;;;9.73;;
55710;SDS011;41612;51.994;5.880;2023-09-08T09:24:13;10.85;;;9.10;;
55710;SDS011;41612;51.994;5.880;2023-09-08T09:26:40;7.53;;;6.72;;
55710;SDS011;41612;51.994;5.880;2023-09-08T09:29:15;10.55;;;9.00;;
55710;SDS011;41612;51.994;5.880;2023-09-08T09:31:51;10.52;;;8.88;;
55710;SDS011;41612;51.994;5.880;2023-09-08T09:34:18;12.55;;;8.48;;
55710;SDS011;41612;51.994;5.880;2023-09-08T09:36:45;8.25;;;6.55;;
55710;SDS011;41612;51.994;5.880;2023-09-08T09:39:16;10.80;;;7.57;;
55710;SDS011;41612;51.994;5.880;2023-09-08T09:41:46;13.13;;;9.00;;
55710;SDS011;41612;51.994;5.880;2023-09-08T09:44:12;11.70;;;8.30;;
55710;SDS011;41612;51.994;5.880;2023-09-08T09:46:38;11.43;;;9.32;;
55710;SDS011;41612;51.994;5.880;2023-09-08T09:49:10;10.65;;;8.10;;
55710;SDS011;41612;51.994;5.880;2023-09-08T09:51:42;11.18;;;8.25;;
55710;SDS011;41612;51.994;5.880;2023-09-08T09:54:09;11.18;;;7.90;;
55710;SDS011;41612;51.994;5.880;2023-09-08T09:56:36;10.57;;;7.70;;
55710;SDS011;41612;51.994;5.880;2023-09-08T09:59:03;11.90;;;9.23;;
55710;SDS011;41612;51.994;5.880;2023-09-08T10:01:29;10.82;;;8.45;;
55710;SDS011;41612;51.994;5.880;2023-09-08T10:03:57;11.23;;;8.30;;
55710;SDS011;41612;51.994;5.880;2023-09-08T10:06:25;13.55;;;8.90;;
55710;SDS011;41612;51.994;5.880;2023-09-08T10:08:51;11.65;;;7.97;;
55710;SDS011;41612;51.994;5.880;2023-09-08T10:11:18;8.73;;;7.28;;
55710;SDS011;41612;51.994;5.880;2023-09-08T10:13:47;10.93;;;9.20;;
55710;SDS011;41612;51.994;5.880;2023-09-08T10:16:16;11.32;;;8.93;;
55710;SDS011;41612;51.994;5.880;2023-09-08T10:18:46;10.60;;;8.63;;
55710;SDS011;41612;51.994;5.880;2023-09-08T10:21:14;14.32;;;8.02;;
55710;SDS011;41612;51.994;5.880;2023-09-08T10:23:43;14.80;;;7.40;;
55710;SDS011;41612;51.994;5.880;2023-09-08T10:26:16;12.80;;;8.85;;
55710;SDS011;41612;51.994;5.880;2023-09-08T10:28:42;10.90;;;7.80;;
55710;SDS011;41612;51.994;5.880;2023-09-08T10:31:09;9.50;;;7.93;;
55710;SDS011;41612;51.994;5.880;2023-09-08T10:33:36;11.57;;;6.35;;
55710;SDS011;41612;51.994;5.880;2023-09-08T10:36:03;9.65;;;6.80;;
55710;SDS011;41612;51.994;5.880;2023-09-08T10:38:33;7.60;;;6.15;;
55710;SDS011;41612;51.994;5.880;2023-09-08T10:43:44;9.70;;;8.40;;
55710;SDS011;41612;51.994;5.880;2023-09-08T10:46:10;9.23;;;6.70;;
55710;SDS011;41612;51.994;5.880;2023-09-08T10:48:47;8.52;;;7.20;;
55710;SDS011;41612;51.994;5.880;2023-09-08T10:51:21;9.60;;;5.82;;
55710;SDS011;41612;51.994;5.880;2023-09-08T10:53:49;9.25;;;6.93;;
55710;SDS011;41612;51.994;5.880;2023-09-08T10:56:15;12.13;;;6.85;;
55710;SDS011;41612;51.994;5.880;2023-09-08T10:58:42;10.25;;;6.28;;
55710;SDS011;41612;51.994;5.880;2023-09-08T11:01:18;11.18;;;6.20;;
55710;SDS011;41612;51.994;5.880;2023-09-08T11:03:52;10.73;;;6.03;;
55710;SDS011;41612;51.994;5.880;2023-09-08T11:06:19;9.60;;;6.43;;
55710;SDS011;41612;51.994;5.880;2023-09-08T11:08:49;9.20;;;6.15;;
55710;SDS011;41612;51.994;5.880;2023-09-08T11:11:18;8.25;;;7.43;;
55710;SDS011;41612;51.994;5.880;2023-09-08T11:13:44;13.25;;;8.32;;
55710;SDS011;41612;51.994;5.880;2023-09-08T11:16:15;11.40;;;7.43;;
55710;SDS011;41612;51.994;5.880;2023-09-08T11:18:46;14.90;;;6.43;;
55710;SDS011;41612;51.994;5.880;2023-09-08T11:21:12;9.55;;;7.07;;
55710;SDS011;41612;51.994;5.880;2023-09-08T11:23:38;10.10;;;7.57;;
55710;SDS011;41612;51.994;5.880;2023-09-08T11:26:04;11.40;;;6.65;;
55710;SDS011;41612;51.994;5.880;2023-09-08T11:28:31;7.53;;;6.15;;
55710;SDS011;41612;51.994;5.880;2023-09-08T11:30:57;6.93;;;5.20;;
55710;SDS011;41612;51.994;5.880;2023-09-08T11:33:23;10.18;;;6.43;;
55710;SDS011;41612;51.994;5.880;2023-09-08T11:35:50;11.80;;;6.18;;
55710;SDS011;41612;51.994;5.880;2023-09-08T11:38:25;6.85;;;6.00;;
55710;SDS011;41612;51.994;5.880;2023-09-08T11:40:52;6.45;;;4.75;;
55710;SDS011;41612;51.994;5.880;2023-09-08T11:43:19;8.32;;;4.65;;
55710;SDS011;41612;51.994;5.880;2023-09-08T11:45:45;9.38;;;5.28;;
55710;SDS011;41612;51.994;5.880;2023-09-08T11:48:11;7.00;;;4.75;;
55710;SDS011;41612;51.994;5.880;2023-09-08T11:50:38;8.18;;;6.05;;
55710;SDS011;41612;51.994;5.880;2023-09-08T11:53:06;9.38;;;4.60;;
55710;SDS011;41612;51.994;5.880;2023-09-08T11:55:32;5.15;;;4.10;;
55710;SDS011;41612;51.994;5.880;2023-09-08T11:57:58;12.27;;;5.03;;
55710;SDS011;41612;51.994;5.880;2023-09-08T12:00:27;7.80;;;5.07;;
55710;SDS011;41612;51.994;5.880;2023-09-08T12:02:55;7.28;;;4.78;;
55710;SDS011;41612;51.994;5.880;2023-09-08T12:05:33;7.53;;;4.80;;
55710;SDS011;41612;51.994;5.880;2023-09-08T12:07:59;7.60;;;4.43;;
55710;SDS011;41612;51.994;5.880;2023-09-08T12:10:29;7.65;;;4.85;;
55710;SDS011;41612;51.994;5.880;2023-09-08T12:12:55;7.13;;;4.35;;
55710;SDS011;41612;51.994;5.880;2023-09-08T12:18:04;4.95;;;3.35;;
55710;SDS011;41612;51.994;5.880;2023-09-08T12:20:31;4.93;;;4.32;;
55710;SDS011;41612;51.994;5.880;2023-09-08T12:23:03;8.55;;;4.32;;
55710;SDS011;41612;51.994;5.880;2023-09-08T12:25:32;6.85;;;4.38;;
55710;SDS011;41612;51.994;5.880;2023-09-08T12:27:59;5.22;;;4.30;;
55710;SDS011;41612;51.994;5.880;2023-09-08T12:30:25;5.63;;;3.55;;
55710;SDS011;41612;51.994;5.880;2023-09-08T12:33:00;4.85;;;3.70;;
55710;SDS011;41612;51.994;5.880;2023-09-08T12:35:27;7.18;;;4.68;;
55710;SDS011;41612;51.994;5.880;2023-09-08T12:37:57;9.35;;;4.25;;
55710;SDS011;41612;51.994;5.880;2023-09-08T12:40:28;8.85;;;4.75;;
55710;SDS011;41612;51.994;5.880;2023-09-08T12:42:56;7.43;;;3.60;;
55710;SDS011;41612;51.994;5.880;2023-09-08T12:45:23;7.85;;;3.80;;
55710;SDS011;41612;51.994;5.880;2023-09-08T12:47:50;5.45;;;3.38;;
55710;SDS011;41612;51.994;5.880;2023-09-08T12:50:19;7.22;;;3.80;;
55710;SDS011;41612;51.994;5.880;2023-09-08T12:52:45;7.00;;;4.70;;
55710;SDS011;41612;51.994;5.880;2023-09-08T12:55:11;5.75;;;4.68;;
55710;SDS011;41612;51.994;5.880;2023-09-08T12:57:37;10.65;;;4.47;;
55710;SDS011;41612;51.994;5.880;2023-09-08T13:00:03;5.50;;;4.13;;
55710;SDS011;41612;51.994;5.880;2023-09-08T13:02:30;6.78;;;4.45;;
55710;SDS011;41612;51.994;5.880;2023-09-08T13:04:55;5.40;;;3.63;;
55710;SDS011;41612;51.994;5.880;2023-09-08T13:07:21;6.93;;;3.72;;
55710;SDS011;41612;51.994;5.880;2023-09-08T13:09:47;5.97;;;3.30;;
55710;SDS011;41612;51.994;5.880;2023-09-08T13:12:13;4.55;;;3.50;;
55710;SDS011;41612;51.994;5.880;2023-09-08T13:14:42;6.28;;;3.63;;
55710;SDS011;41612;51.994;5.880;2023-09-08T13:17:11;5.57;;;3.00;;
55710;SDS011;41612;51.994;5.880;2023-09-08T13:19:37;7.38;;;3.38;;
55710;SDS011;41612;51.994;5.880;2023-09-08T13:22:04;6.28;;;3.50;;
55710;SDS011;41612;51.994;5.880;2023-09-08T13:24:30;4.57;;;3.83;;
55710;SDS011;41612;51.994;5.880;2023-09-08T13:26:56;9.23;;;3.72;;
55710;SDS011;41612;51.994;5.880;2023-09-08T13:29:22;6.35;;;3.20;;
55710;SDS011;41612;51.994;5.880;2023-09-08T13:31:48;3.53;;;2.80;;
55710;SDS011;41612;51.994;5.880;2023-09-08T13:34:14;5.45;;;3.90;;
55710;SDS011;41612;51.994;5.880;2023-09-08T13:36:39;4.70;;;3.47;;
55710;SDS011;41612;51.994;5.880;2023-09-08T13:39:05;6.70;;;3.65;;
55710;SDS011;41612;51.994;5.880;2023-09-08T13:44:29;6.38;;;3.47;;
55710;SDS011;41612;51.994;5.880;2023-09-08T13:46:55;4.63;;;3.30;;
55710;SDS011;41612;51.994;5.880;2023-09-08T13:49:21;3.55;;;2.85;;
55710;SDS011;41612;51.994;5.880;2023-09-08T13:51:50;4.53;;;3.05;;
55710;SDS011;41612;51.994;5.880;2023-09-08T13:54:19;4.35;;;3.40;;
55710;SDS011;41612;51.994;5.880;2023-09-08T13:56:45;5.45;;;3.17;;
55710;SDS011;41612;51.994;5.880;2023-09-08T13:59:22;5.68;;;3.35;;
55710;SDS011;41612;51.994;5.880;2023-09-08T14:01:47;6.10;;;3.63;;
55710;SDS011;41612;51.994;5.880;2023-09-08T14:04:13;6.97;;;4.07;;
55710;SDS011;41612;51.994;5.880;2023-09-08T14:06:38;4.30;;;3.10;;
55710;SDS011;41612;51.994;5.880;2023-09-08T14:09:04;8.00;;;3.83;;
55710;SDS011;41612;51.994;5.880;2023-09-08T14:11:30;5.45;;;3.42;;
55710;SDS011;41612;51.994;5.880;2023-09-08T14:13:55;5.07;;;3.13;;
55710;SDS011;41612;51.994;5.880;2023-09-08T14:16:21;5.85;;;3.25;;
55710;SDS011;41612;51.994;5.880;2023-09-08T14:18:47;5.40;;;3.72;;
55710;SDS011;41612;51.994;5.880;2023-09-08T14:21:12;4.13;;;3.17;;
55710;SDS011;41612;51.994;5.880;2023-09-08T14:23:38;6.57;;;3.25;;
55710;SDS011;41612;51.994;5.880;2023-09-08T14:26:05;4.70;;;2.97;;
55710;SDS011;41612;51.994;5.880;2023-09-08T14:28:31;3.78;;;2.80;;
55710;SDS011;41612;51.994;5.880;2023-09-08T14:30:57;4.43;;;2.90;;
55710;SDS011;41612;51.994;5.880;2023-09-08T14:33:23;5.35;;;3.25;;
55710;SDS011;41612;51.994;5.880;2023-09-08T14:35:49;4.53;;;2.97;;
55710;SDS011;41612;51.994;5.880;2023-09-08T14:38:23;4.40;;;2.80;;
55710;SDS011;41612;51.994;5.880;2023-09-08T14:43:21;7.30;;;2.85;;
55710;SDS011;41612;51.994;5.880;2023-09-08T14:45:47;3.25;;;2.72;;
55710;SDS011;41612;51.994;5.880;2023-09-08T14:48:13;5.13;;;3.40;;
55710;SDS011;41612;51.994;5.880;2023-09-08T14:50:39;8.32;;;3.42;;
55710;SDS011;41612;51.994;5.880;2023-09-08T14:53:05;4.93;;;2.97;;
55710;SDS011;41612;51.994;5.880;2023-09-08T14:55:31;4.95;;;3.25;;